sensor_id;sensor_type;location;lat;lon;timestamp;pressure;altitude;pressure_sealevel;temperature;humidity
6216;BME280;3141;49.234;9.326;2023-03-19T00:00:20;99345.44;;;11.50;75.60
6216;BME280;3141;49.234;9.326;2023-03-19T00:01:05;99346.56;;;11.55;75.13
6216;BME280;3141;49.234;9.326;2023-03-19T00:01:48;99346.25;;;11.50;74.92
6216;BME280;3141;49.234;9.326;2023-03-19T00:02:30;99353.53;;;11.48;75.00
6216;BME280;3141;49.234;9.326;2023-03-19T00:03:13;99347.91;;;11.51;74.83
6216;BME280;3141;49.234;9.326;2023-03-19T00:03:56;99349.09;;;11.49;74.92
6216;BME280;3141;49.234;9.326;2023-03-19T00:04:38;99347.75;;;11.45;75.04
6216;BME280;3141;49.234;9.326;2023-03-19T00:05:20;99349.59;;;11.36;75.17
6216;BME280;3141;49.234;9.326;2023-03-19T00:06:02;99348.28;;;11.32;75.59
6216;BME280;3141;49.234;9.326;2023-03-19T00:06:45;99348.75;;;11.36;75.58
6216;BME280;3141;49.234;9.326;2023-03-19T00:07:27;99346.63;;;11.31;75.48
6216;BME280;3141;49.234;9.326;2023-03-19T00:08:10;99349.63;;;11.28;75.55
6216;BME280;3141;49.234;9.326;2023-03-19T00:08:52;99352.25;;;11.36;75.41
6216;BME280;3141;49.234;9.326;2023-03-19T00:09:34;99359.53;;;11.34;75.04
6216;BME280;3141;49.234;9.326;2023-03-19T00:10:17;99353.56;;;11.32;75.57
6216;BME280;3141;49.234;9.326;2023-03-19T00:11:08;99360.84;;;11.30;75.73
6216;BME280;3141;49.234;9.326;2023-03-19T00:11:50;99364.16;;;11.32;75.54
6216;BME280;3141;49.234;9.326;2023-03-19T00:12:33;99362.84;;;11.28;75.77
6216;BME280;3141;49.234;9.326;2023-03-19T00:13:15;99370.13;;;11.26;75.96
6216;BME280;3141;49.234;9.326;2023-03-19T00:13:57;99371.75;;;11.27;75.71
6216;BME280;3141;49.234;9.326;2023-03-19T00:14:40;99366.16;;;11.22;75.83
6216;BME280;3141;49.234;9.326;2023-03-19T00:15:23;99372.63;;;11.20;75.97
6216;BME280;3141;49.234;9.326;2023-03-19T00:16:06;99369.78;;;11.13;76.32
6216;BME280;3141;49.234;9.326;2023-03-19T00:16:49;99372.28;;;11.15;76.40
6216;BME280;3141;49.234;9.326;2023-03-19T00:17:31;99371.63;;;11.13;76.23
6216;BME280;3141;49.234;9.326;2023-03-19T00:18:14;99369.47;;;11.16;76.36
6216;BME280;3141;49.234;9.326;2023-03-19T00:18:56;99375.25;;;11.12;75.91
6216;BME280;3141;49.234;9.326;2023-03-19T00:19:38;99375.25;;;11.12;76.16
6216;BME280;3141;49.234;9.326;2023-03-19T00:20:21;99372.47;;;11.05;76.21
6216;BME280;3141;49.234;9.326;2023-03-19T00:21:03;99373.47;;;11.04;76.30
6216;BME280;3141;49.234;9.326;2023-03-19T00:21:46;99374.44;;;11.03;76.38
6216;BME280;3141;49.234;9.326;2023-03-19T00:22:28;99376.41;;;11.01;76.53
6216;BME280;3141;49.234;9.326;2023-03-19T00:23:11;99376.41;;;11.01;76.45
6216;BME280;3141;49.234;9.326;2023-03-19T00:23:53;99371.97;;;10.94;76.84
6216;BME280;3141;49.234;9.326;2023-03-19T00:24:38;99371.97;;;10.94;76.71
6216;BME280;3141;49.234;9.326;2023-03-19T00:25:20;99370.47;;;10.91;76.82
6216;BME280;3141;49.234;9.326;2023-03-19T00:26:03;99377.25;;;10.94;77.01
6216;BME280;3141;49.234;9.326;2023-03-19T00:26:45;99373.28;;;10.98;77.04
6216;BME280;3141;49.234;9.326;2023-03-19T00:27:28;99379.22;;;11.00;76.86
6216;BME280;3141;49.234;9.326;2023-03-19T00:28:10;99371.63;;;10.97;76.84
6216;BME280;3141;49.234;9.326;2023-03-19T00:28:53;99375.75;;;10.91;77.33
6216;BME280;3141;49.234;9.326;2023-03-19T00:29:36;99380.06;;;11.00;76.99
6216;BME280;3141;49.234;9.326;2023-03-19T00:30:18;99384.03;;;11.12;76.15
6216;BME280;3141;49.234;9.326;2023-03-19T00:31:15;99383.84;;;11.14;76.00
6216;BME280;3141;49.234;9.326;2023-03-19T00:31:57;99381.91;;;11.08;76.13
6216;BME280;3141;49.234;9.326;2023-03-19T00:32:40;99383.34;;;11.10;76.42
6216;BME280;3141;49.234;9.326;2023-03-19T00:33:22;99389.47;;;11.03;76.84
6216;BME280;3141;49.234;9.326;2023-03-19T00:34:05;99387.66;;;10.95;76.95
6216;BME280;3141;49.234;9.326;2023-03-19T00:34:47;99387.66;;;10.95;77.38
6216;BME280;3141;49.234;9.326;2023-03-19T00:35:30;99387.50;;;11.05;77.08
6216;BME280;3141;49.234;9.326;2023-03-19T00:36:12;99389.34;;;11.04;77.36
6216;BME280;3141;49.234;9.326;2023-03-19T00:36:55;99388.31;;;11.05;77.30
6216;BME280;3141;49.234;9.326;2023-03-19T00:37:38;99387.66;;;11.11;76.77
6216;BME280;3141;49.234;9.326;2023-03-19T00:38:20;99391.28;;;11.18;76.51
6216;BME280;3141;49.234;9.326;2023-03-19T00:39:03;99385.69;;;11.21;76.39
6216;BME280;3141;49.234;9.326;2023-03-19T00:39:45;99387.50;;;11.21;75.86
6216;BME280;3141;49.234;9.326;2023-03-19T00:40:28;99391.16;;;11.20;75.98
6216;BME280;3141;49.234;9.326;2023-03-19T00:41:11;99387.66;;;11.19;75.82
6216;BME280;3141;49.234;9.326;2023-03-19T00:41:53;99388.47;;;11.12;75.67
6216;BME280;3141;49.234;9.326;2023-03-19T00:42:36;99381.91;;;11.08;75.89
6216;BME280;3141;49.234;9.326;2023-03-19T00:43:18;99382.53;;;11.10;76.10
6216;BME280;3141;49.234;9.326;2023-03-19T00:44:01;99388.50;;;11.20;75.64
6216;BME280;3141;49.234;9.326;2023-03-19T00:44:44;99385.03;;;11.19;75.54
6216;BME280;3141;49.234;9.326;2023-03-19T00:45:27;99386.47;;;11.22;75.33
6216;BME280;3141;49.234;9.326;2023-03-19T00:46:11;99383.66;;;11.23;75.14
6216;BME280;3141;49.234;9.326;2023-03-19T00:46:53;99380.72;;;11.26;74.69
6216;BME280;3141;49.234;9.326;2023-03-19T00:47:36;99382.38;;;11.19;75.01
6216;BME280;3141;49.234;9.326;2023-03-19T00:48:19;99376.75;;;11.06;75.41
6216;BME280;3141;49.234;9.326;2023-03-19T00:49:02;99378.41;;;11.07;75.75
6216;BME280;3141;49.234;9.326;2023-03-19T00:49:45;99377.91;;;11.12;75.89
6216;BME280;3141;49.234;9.326;2023-03-19T00:50:27;99377.06;;;11.11;75.90
6216;BME280;3141;49.234;9.326;2023-03-19T00:51:10;99376.44;;;11.09;76.60
6216;BME280;3141;49.234;9.326;2023-03-19T00:51:52;99387.66;;;11.19;75.70
6216;BME280;3141;49.234;9.326;2023-03-19T00:52:35;99380.69;;;11.18;75.48
6216;BME280;3141;49.234;9.326;2023-03-19T00:53:17;99382.22;;;11.13;76.09
6216;BME280;3141;49.234;9.326;2023-03-19T00:53:59;99376.91;;;11.21;75.72
6216;BME280;3141;49.234;9.326;2023-03-19T00:54:42;99378.72;;;11.20;75.87
6216;BME280;3141;49.234;9.326;2023-03-19T00:55:24;99383.69;;;11.15;75.86
6216;BME280;3141;49.234;9.326;2023-03-19T00:56:10;99379.56;;;11.21;76.07
6216;BME280;3141;49.234;9.326;2023-03-19T00:56:52;99380.19;;;11.15;75.84
6216;BME280;3141;49.234;9.326;2023-03-19T00:57:35;99376.09;;;11.12;75.92
6216;BME280;3141;49.234;9.326;2023-03-19T00:58:17;99382.69;;;11.24;75.92
6216;BME280;3141;49.234;9.326;2023-03-19T00:58:59;99382.19;;;11.21;76.04
6216;BME280;3141;49.234;9.326;2023-03-19T00:59:42;99383.03;;;11.21;76.12
6216;BME280;3141;49.234;9.326;2023-03-19T01:00:24;99388.47;;;11.28;76.08
6216;BME280;3141;49.234;9.326;2023-03-19T01:01:08;99384.53;;;11.32;75.62
6216;BME280;3141;49.234;9.326;2023-03-19T01:01:50;99387.00;;;11.33;75.73
6216;BME280;3141;49.234;9.326;2023-03-19T01:02:33;99385.97;;;11.34;75.50
6216;BME280;3141;49.234;9.326;2023-03-19T01:03:15;99384.81;;;11.29;75.83
6216;BME280;3141;49.234;9.326;2023-03-19T01:03:58;99382.88;;;11.23;76.28
6216;BME280;3141;49.234;9.326;2023-03-19T01:04:40;99380.69;;;11.18;76.48
6216;BME280;3141;49.234;9.326;2023-03-19T01:05:22;99384.00;;;11.20;76.09
6216;BME280;3141;49.234;9.326;2023-03-19T01:06:05;99384.03;;;11.28;76.10
6216;BME280;3141;49.234;9.326;2023-03-19T01:06:48;99383.19;;;11.28;76.16
6216;BME280;3141;49.234;9.326;2023-03-19T01:07:31;99393.25;;;11.32;75.92
6216;BME280;3141;49.234;9.326;2023-03-19T01:08:15;99385.66;;;11.29;75.76
6216;BME280;3141;49.234;9.326;2023-03-19T01:08:57;99384.53;;;11.32;75.81
6216;BME280;3141;49.234;9.326;2023-03-19T01:09:40;99384.00;;;11.36;75.53
6216;BME280;3141;49.234;9.326;2023-03-19T01:10:23;99380.69;;;11.34;75.48
6216;BME280;3141;49.234;9.326;2023-03-19T01:11:11;99375.25;;;11.28;75.47
6216;BME280;3141;49.234;9.326;2023-03-19T01:11:54;99379.53;;;11.29;75.83
6216;BME280;3141;49.234;9.326;2023-03-19T01:12:36;99374.09;;;11.22;75.90
6216;BME280;3141;49.234;9.326;2023-03-19T01:13:19;99380.03;;;11.24;75.92
6216;BME280;3141;49.234;9.326;2023-03-19T01:14:01;99383.34;;;11.26;75.70
6216;BME280;3141;49.234;9.326;2023-03-19T01:14:44;99381.03;;;11.23;76.06
6216;BME280;3141;49.234;9.326;2023-03-19T01:15:27;99381.03;;;11.23;76.12
6216;BME280;3141;49.234;9.326;2023-03-19T01:16:09;99382.69;;;11.24;76.12
6216;BME280;3141;49.234;9.326;2023-03-19T01:16:51;99381.03;;;11.23;75.85
6216;BME280;3141;49.234;9.326;2023-03-19T01:17:34;99387.00;;;11.33;75.72
6216;BME280;3141;49.234;9.326;2023-03-19T01:18:16;99384.97;;;11.43;75.23
6216;BME280;3141;49.234;9.326;2023-03-19T01:19:00;99383.00;;;11.45;75.45
6216;BME280;3141;49.234;9.326;2023-03-19T01:19:42;99384.31;;;11.41;75.38
6216;BME280;3141;49.234;9.326;2023-03-19T01:20:25;99378.69;;;11.44;75.35
6216;BME280;3141;49.234;9.326;2023-03-19T01:21:08;99375.22;;;11.44;75.57
6216;BME280;3141;49.234;9.326;2023-03-19T01:21:51;99376.56;;;11.40;75.91
6216;BME280;3141;49.234;9.326;2023-03-19T01:22:40;99383.66;;;11.39;76.29
6216;BME280;3141;49.234;9.326;2023-03-19T01:23:25;99376.69;;;11.46;75.34
6216;BME280;3141;49.234;9.326;2023-03-19T01:24:08;99382.97;;;11.53;74.98
6216;BME280;3141;49.234;9.326;2023-03-19T01:24:50;99385.44;;;11.55;75.35
6216;BME280;3141;49.234;9.326;2023-03-19T01:25:33;99373.03;;;11.55;74.81
6216;BME280;3141;49.234;9.326;2023-03-19T01:26:16;99378.47;;;11.62;74.80
6216;BME280;3141;49.234;9.326;2023-03-19T01:26:59;99378.00;;;11.67;74.44
6216;BME280;3141;49.234;9.326;2023-03-19T01:27:41;99377.38;;;11.65;74.42
6216;BME280;3141;49.234;9.326;2023-03-19T01:28:24;99373.22;;;11.54;75.38
6216;BME280;3141;49.234;9.326;2023-03-19T01:29:06;99377.53;;;11.47;75.90
6216;BME280;3141;49.234;9.326;2023-03-19T01:29:49;99376.88;;;11.45;76.37
6216;BME280;3141;49.234;9.326;2023-03-19T01:30:32;99377.22;;;11.42;76.58
6216;BME280;3141;49.234;9.326;2023-03-19T01:31:14;99377.72;;;11.45;76.58
6216;BME280;3141;49.234;9.326;2023-03-19T01:31:56;99375.88;;;11.46;76.50
6216;BME280;3141;49.234;9.326;2023-03-19T01:32:39;99378.19;;;11.49;76.55
6216;BME280;3141;49.234;9.326;2023-03-19T01:33:21;99371.06;;;11.49;76.38
6216;BME280;3141;49.234;9.326;2023-03-19T01:34:03;99384.47;;;11.48;76.62
6216;BME280;3141;49.234;9.326;2023-03-19T01:34:46;99374.22;;;11.45;76.76
6216;BME280;3141;49.234;9.326;2023-03-19T01:35:28;99376.06;;;11.36;77.55
6216;BME280;3141;49.234;9.326;2023-03-19T01:36:11;99383.47;;;11.41;77.50
6216;BME280;3141;49.234;9.326;2023-03-19T01:36:54;99382.97;;;11.53;76.90
6216;BME280;3141;49.234;9.326;2023-03-19T01:37:36;99379.19;;;11.56;76.79
6216;BME280;3141;49.234;9.326;2023-03-19T01:38:19;99382.81;;;11.55;76.77
6216;BME280;3141;49.234;9.326;2023-03-19T01:39:01;99384.63;;;11.62;76.67
6216;BME280;3141;49.234;9.326;2023-03-19T01:39:43;99382.63;;;11.56;76.88
6216;BME280;3141;49.234;9.326;2023-03-19T01:40:26;99383.59;;;11.63;76.51
6216;BME280;3141;49.234;9.326;2023-03-19T01:41:09;99380.66;;;11.58;76.92
6216;BME280;3141;49.234;9.326;2023-03-19T01:41:52;99384.63;;;11.62;77.06
6216;BME280;3141;49.234;9.326;2023-03-19T01:42:50;99390.09;;;11.61;77.07
6216;BME280;3141;49.234;9.326;2023-03-19T01:43:32;99384.31;;;11.66;76.84
6216;BME280;3141;49.234;9.326;2023-03-19T01:44:23;99384.31;;;11.66;77.00
6216;BME280;3141;49.234;9.326;2023-03-19T01:45:32;99382.97;;;11.70;77.19
6216;BME280;3141;49.234;9.326;2023-03-19T01:46:35;99386.78;;;11.75;77.19
6216;BME280;3141;49.234;9.326;2023-03-19T01:47:30;99387.44;;;11.69;76.65
6216;BME280;3141;49.234;9.326;2023-03-19T01:48:36;99390.75;;;11.55;77.55
6216;BME280;3141;49.234;9.326;2023-03-19T01:49:20;99382.50;;;11.66;76.90
6216;BME280;3141;49.234;9.326;2023-03-19T01:50:04;99387.94;;;11.73;76.85
6216;BME280;3141;49.234;9.326;2023-03-19T01:50:47;99381.47;;;11.67;77.06
6216;BME280;3141;49.234;9.326;2023-03-19T01:51:36;99387.09;;;11.72;77.09
6216;BME280;3141;49.234;9.326;2023-03-19T01:52:20;99384.13;;;11.67;77.18
6216;BME280;3141;49.234;9.326;2023-03-19T01:53:05;99386.59;;;11.69;77.02
6216;BME280;3141;49.234;9.326;2023-03-19T01:53:53;99384.28;;;11.74;76.63
6216;BME280;3141;49.234;9.326;2023-03-19T01:54:36;99386.91;;;11.74;76.57
6216;BME280;3141;49.234;9.326;2023-03-19T01:55:19;99387.25;;;11.71;76.44
6216;BME280;3141;49.234;9.326;2023-03-19T01:56:07;99382.97;;;11.70;76.75
6216;BME280;3141;49.234;9.326;2023-03-19T01:56:57;99381.97;;;11.71;76.52
6216;BME280;3141;49.234;9.326;2023-03-19T01:57:40;99387.09;;;11.72;76.55
6216;BME280;3141;49.234;9.326;2023-03-19T01:58:23;99384.56;;;11.79;76.32
6216;BME280;3141;49.234;9.326;2023-03-19T01:59:11;99389.72;;;11.80;76.14
6216;BME280;3141;49.234;9.326;2023-03-19T01:59:56;99391.53;;;11.80;76.22
6216;BME280;3141;49.234;9.326;2023-03-19T02:00:39;99383.78;;;11.78;76.12
6216;BME280;3141;49.234;9.326;2023-03-19T02:01:22;99383.94;;;11.69;76.78
6216;BME280;3141;49.234;9.326;2023-03-19T02:02:46;99382.28;;;11.76;76.55
6216;BME280;3141;49.234;9.326;2023-03-19T02:03:10;99378.97;;;11.74;76.66
6216;BME280;3141;49.234;9.326;2023-03-19T02:03:54;99373.34;;;11.77;76.47
6216;BME280;3141;49.234;9.326;2023-03-19T02:04:39;99383.25;;;11.83;76.26
6216;BME280;3141;49.234;9.326;2023-03-19T02:05:23;99388.06;;;11.79;76.53
6216;BME280;3141;49.234;9.326;2023-03-19T02:06:09;99390.22;;;11.76;76.96
6216;BME280;3141;49.234;9.326;2023-03-19T02:06:57;99385.25;;;11.81;76.69
6216;BME280;3141;49.234;9.326;2023-03-19T02:07:43;99390.06;;;11.77;76.99
6216;BME280;3141;49.234;9.326;2023-03-19T02:08:26;99393.84;;;11.83;76.90
6216;BME280;3141;49.234;9.326;2023-03-19T02:09:10;99389.72;;;11.80;77.05
6216;BME280;3141;49.234;9.326;2023-03-19T02:09:52;99396.34;;;11.76;77.19
6216;BME280;3141;49.234;9.326;2023-03-19T02:10:35;99393.22;;;11.73;77.28
6216;BME280;3141;49.234;9.326;2023-03-19T02:11:18;99398.16;;;11.76;77.13
6216;BME280;3141;49.234;9.326;2023-03-19T02:12:01;99393.53;;;11.78;77.19
6216;BME280;3141;49.234;9.326;2023-03-19T02:12:44;99391.19;;;11.83;76.88
6216;BME280;3141;49.234;9.326;2023-03-19T02:13:27;99392.34;;;11.88;76.37
6216;BME280;3141;49.234;9.326;2023-03-19T02:14:09;99389.56;;;11.82;76.76
6216;BME280;3141;49.234;9.326;2023-03-19T02:14:52;99391.03;;;11.84;76.83
6216;BME280;3141;49.234;9.326;2023-03-19T02:15:34;99391.84;;;11.85;76.53
6216;BME280;3141;49.234;9.326;2023-03-19T02:16:17;99394.81;;;11.90;76.59
6216;BME280;3141;49.234;9.326;2023-03-19T02:16:59;99388.06;;;11.87;76.71
6216;BME280;3141;49.234;9.326;2023-03-19T02:17:42;99394.47;;;11.93;76.28
6216;BME280;3141;49.234;9.326;2023-03-19T02:18:24;99394.63;;;11.99;75.99
6216;BME280;3141;49.234;9.326;2023-03-19T02:19:11;99406.03;;;12.00;76.15
6216;BME280;3141;49.234;9.326;2023-03-19T02:21:05;99431.94;;;11.74;77.57
6216;BME280;3141;49.234;9.326;2023-03-19T02:21:48;99434.59;;;11.66;78.58
6216;BME280;3141;49.234;9.326;2023-03-19T02:22:31;99430.47;;;11.71;77.79
6216;BME280;3141;49.234;9.326;2023-03-19T02:23:20;99419.19;;;11.85;77.49
6216;BME280;3141;49.234;9.326;2023-03-19T02:24:24;99418.00;;;11.88;77.34
6216;BME280;3141;49.234;9.326;2023-03-19T02:25:13;99420.66;;;11.88;76.97
6216;BME280;3141;49.234;9.326;2023-03-19T02:26:17;99425.94;;;11.96;76.46
6216;BME280;3141;49.234;9.326;2023-03-19T02:27:00;99417.34;;;11.94;76.41
6216;BME280;3141;49.234;9.326;2023-03-19T02:27:43;99417.69;;;11.91;76.74
6216;BME280;3141;49.234;9.326;2023-03-19T02:28:25;99422.13;;;11.90;76.41
6216;BME280;3141;49.234;9.326;2023-03-19T02:29:07;99426.59;;;11.90;76.62
6216;BME280;3141;49.234;9.326;2023-03-19T02:29:50;99425.63;;;11.91;76.37
6216;BME280;3141;49.234;9.326;2023-03-19T02:30:33;99428.59;;;11.88;76.59
6216;BME280;3141;49.234;9.326;2023-03-19T02:31:16;99429.59;;;11.87;76.79
6216;BME280;3141;49.234;9.326;2023-03-19T02:31:59;99425.59;;;11.99;75.97
6216;BME280;3141;49.234;9.326;2023-03-19T02:32:41;99428.22;;;11.99;75.60
6216;BME280;3141;49.234;9.326;2023-03-19T02:33:24;99422.97;;;11.91;76.77
6216;BME280;3141;49.234;9.326;2023-03-19T02:34:54;99429.56;;;11.95;76.41
6216;BME280;3141;49.234;9.326;2023-03-19T02:35:37;99430.22;;;11.97;76.65
6216;BME280;3141;49.234;9.326;2023-03-19T02:36:20;99429.88;;;12.00;76.61
6216;BME280;3141;49.234;9.326;2023-03-19T02:37:08;99432.88;;;11.97;76.59
6216;BME280;3141;49.234;9.326;2023-03-19T02:37:51;99434.88;;;11.95;76.55
6216;BME280;3141;49.234;9.326;2023-03-19T02:38:35;99429.06;;;11.99;76.29
6216;BME280;3141;49.234;9.326;2023-03-19T02:39:22;99433.84;;;12.04;76.18
6216;BME280;3141;49.234;9.326;2023-03-19T02:40:10;99444.44;;;12.04;76.10
6216;BME280;3141;49.234;9.326;2023-03-19T02:41:01;99436.84;;;11.93;76.98
6216;BME280;3141;49.234;9.326;2023-03-19T02:41:44;99435.34;;;11.98;76.87
6216;BME280;3141;49.234;9.326;2023-03-19T02:42:27;99428.38;;;12.05;76.17
6216;BME280;3141;49.234;9.326;2023-03-19T02:43:10;99430.56;;;11.94;76.70
6216;BME280;3141;49.234;9.326;2023-03-19T02:43:53;99426.06;;;11.94;76.82
6216;BME280;3141;49.234;9.326;2023-03-19T02:44:36;99427.09;;;11.93;77.20
6216;BME280;3141;49.234;9.326;2023-03-19T02:45:18;99429.56;;;11.95;76.91
6216;BME280;3141;49.234;9.326;2023-03-19T02:46:01;99437.50;;;12.03;76.52
6216;BME280;3141;49.234;9.326;2023-03-19T02:46:44;99435.34;;;11.98;76.82
6216;BME280;3141;49.234;9.326;2023-03-19T02:47:26;99440.50;;;11.92;77.46
6216;BME280;3141;49.234;9.326;2023-03-19T02:48:09;99432.88;;;11.97;77.32
6216;BME280;3141;49.234;9.326;2023-03-19T02:48:51;99425.75;;;11.97;76.96
6216;BME280;3141;49.234;9.326;2023-03-19T02:49:34;99437.81;;;12.00;77.14
6216;BME280;3141;49.234;9.326;2023-03-19T02:50:17;99444.13;;;11.99;77.43
6216;BME280;3141;49.234;9.326;2023-03-19T02:50:59;99448.78;;;11.97;77.95
6216;BME280;3141;49.234;9.326;2023-03-19T02:51:42;99444.47;;;11.88;78.14
6216;BME280;3141;49.234;9.326;2023-03-19T02:52:24;99447.47;;;11.85;78.03
6216;BME280;3141;49.234;9.326;2023-03-19T02:53:07;99439.19;;;11.88;78.18
6216;BME280;3141;49.234;9.326;2023-03-19T02:53:49;99443.81;;;11.86;77.99
6216;BME280;3141;49.234;9.326;2023-03-19T02:54:31;99436.88;;;11.85;77.93
6216;BME280;3141;49.234;9.326;2023-03-19T02:55:14;99439.53;;;11.85;78.07
6216;BME280;3141;49.234;9.326;2023-03-19T02:55:59;99435.88;;;11.86;78.26
6216;BME280;3141;49.234;9.326;2023-03-19T02:56:42;99439.03;;;11.81;78.26
6216;BME280;3141;49.234;9.326;2023-03-19T02:57:24;99431.75;;;11.83;78.63
6216;BME280;3141;49.234;9.326;2023-03-19T02:58:07;99440.69;;;11.82;79.06
6216;BME280;3141;49.234;9.326;2023-03-19T02:58:49;99439.19;;;11.88;78.42
6216;BME280;3141;49.234;9.326;2023-03-19T02:59:32;99442.84;;;11.87;78.14
6216;BME280;3141;49.234;9.326;2023-03-19T03:00:14;99442.72;;;11.64;79.15
6216;BME280;3141;49.234;9.326;2023-03-19T03:00:59;99440.06;;;11.56;79.86
6216;BME280;3141;49.234;9.326;2023-03-19T03:01:41;99437.41;;;11.48;80.91
6216;BME280;3141;49.234;9.326;2023-03-19T03:02:24;99436.91;;;11.44;81.33
6216;BME280;3141;49.234;9.326;2023-03-19T03:03:07;99435.44;;;11.42;81.10
6216;BME280;3141;49.234;9.326;2023-03-19T03:03:49;99440.25;;;11.38;81.91
6216;BME280;3141;49.234;9.326;2023-03-19T03:04:32;99442.53;;;11.41;81.91
6216;BME280;3141;49.234;9.326;2023-03-19T03:05:15;99442.34;;;11.51;81.65
6216;BME280;3141;49.234;9.326;2023-03-19T03:05:58;99442.19;;;11.60;81.25
6216;BME280;3141;49.234;9.326;2023-03-19T03:06:41;99438.53;;;11.61;80.93
6216;BME280;3141;49.234;9.326;2023-03-19T03:07:23;99436.91;;;11.69;80.78
6216;BME280;3141;49.234;9.326;2023-03-19T03:08:05;99439.38;;;11.70;80.50
6216;BME280;3141;49.234;9.326;2023-03-19T03:08:48;99433.25;;;11.61;81.37
6216;BME280;3141;49.234;9.326;2023-03-19T03:09:30;99427.66;;;11.65;81.30
6216;BME280;3141;49.234;9.326;2023-03-19T03:10:13;99430.81;;;11.68;80.95
6216;BME280;3141;49.234;9.326;2023-03-19T03:10:55;99432.75;;;11.74;80.70
6216;BME280;3141;49.234;9.326;2023-03-19T03:11:38;99435.59;;;11.73;80.70
6216;BME280;3141;49.234;9.326;2023-03-19T03:12:22;99438.22;;;11.81;80.36
6216;BME280;3141;49.234;9.326;2023-03-19T03:13:04;99434.53;;;11.90;79.66
6216;BME280;3141;49.234;9.326;2023-03-19T03:13:46;99447.97;;;11.88;79.73
6216;BME280;3141;49.234;9.326;2023-03-19T03:14:29;99447.97;;;11.88;79.57
6216;BME280;3141;49.234;9.326;2023-03-19T03:15:11;99443.00;;;11.85;78.95
6216;BME280;3141;49.234;9.326;2023-03-19T03:15:54;99438.22;;;11.89;79.14
6216;BME280;3141;49.234;9.326;2023-03-19T03:16:36;99440.19;;;11.87;79.74
6216;BME280;3141;49.234;9.326;2023-03-19T03:17:19;99440.38;;;11.85;79.98
6216;BME280;3141;49.234;9.326;2023-03-19T03:18:01;99442.00;;;11.86;79.71
6216;BME280;3141;49.234;9.326;2023-03-19T03:18:43;99441.72;;;11.73;80.02
6216;BME280;3141;49.234;9.326;2023-03-19T03:19:25;99443.22;;;11.68;80.60
6216;BME280;3141;49.234;9.326;2023-03-19T03:20:08;99439.91;;;11.66;80.96
6216;BME280;3141;49.234;9.326;2023-03-19T03:20:52;99439.56;;;11.69;80.36
6216;BME280;3141;49.234;9.326;2023-03-19T03:21:34;99441.22;;;11.70;80.77
6216;BME280;3141;49.234;9.326;2023-03-19T03:22:17;99443.88;;;11.70;81.19
6216;BME280;3141;49.234;9.326;2023-03-19T03:22:59;99456.44;;;11.76;80.67
6216;BME280;3141;49.234;9.326;2023-03-19T03:23:42;99451.97;;;11.76;80.71
6216;BME280;3141;49.234;9.326;2023-03-19T03:24:24;99452.13;;;11.75;80.89
6216;BME280;3141;49.234;9.326;2023-03-19T03:25:07;99459.91;;;11.76;81.11
6216;BME280;3141;49.234;9.326;2023-03-19T03:25:51;99451.47;;;11.73;81.38
6216;BME280;3141;49.234;9.326;2023-03-19T03:26:33;99447.00;;;11.73;81.70
6216;BME280;3141;49.234;9.326;2023-03-19T03:27:17;99450.47;;;11.74;81.72
6216;BME280;3141;49.234;9.326;2023-03-19T03:27:59;99454.78;;;11.75;81.21
6216;BME280;3141;49.234;9.326;2023-03-19T03:28:41;99452.47;;;11.80;81.32
6216;BME280;3141;49.234;9.326;2023-03-19T03:29:24;99446.50;;;11.78;81.72
6216;BME280;3141;49.234;9.326;2023-03-19T03:30:08;99457.75;;;11.80;81.47
6216;BME280;3141;49.234;9.326;2023-03-19T03:31:00;99450.78;;;11.87;81.12
6216;BME280;3141;49.234;9.326;2023-03-19T03:31:43;99452.94;;;11.83;81.72
6216;BME280;3141;49.234;9.326;2023-03-19T03:32:25;99456.91;;;11.87;81.51
6216;BME280;3141;49.234;9.326;2023-03-19T03:33:08;99461.34;;;11.95;80.97
6216;BME280;3141;49.234;9.326;2023-03-19T03:33:50;99458.53;;;11.96;80.96
6216;BME280;3141;49.234;9.326;2023-03-19T03:34:33;99461.00;;;11.98;81.28
6216;BME280;3141;49.234;9.326;2023-03-19T03:35:15;99462.00;;;11.97;81.06
6216;BME280;3141;49.234;9.326;2023-03-19T03:36:03;99461.19;;;11.96;80.35
6216;BME280;3141;49.234;9.326;2023-03-19T03:36:45;99461.00;;;11.98;80.68
6216;BME280;3141;49.234;9.326;2023-03-19T03:37:28;99455.72;;;11.98;80.54
6216;BME280;3141;49.234;9.326;2023-03-19T03:38:10;99460.38;;;11.88;81.21
6216;BME280;3141;49.234;9.326;2023-03-19T03:38:52;99461.56;;;11.85;81.51
6216;BME280;3141;49.234;9.326;2023-03-19T03:39:35;99453.59;;;11.77;82.35
6216;BME280;3141;49.234;9.326;2023-03-19T03:40:18;99456.78;;;11.73;82.44
6216;BME280;3141;49.234;9.326;2023-03-19T03:41:01;99461.06;;;11.74;82.31
6216;BME280;3141;49.234;9.326;2023-03-19T03:41:44;99469.81;;;11.82;81.91
6216;BME280;3141;49.234;9.326;2023-03-19T03:42:27;99466.00;;;11.85;82.13
6216;BME280;3141;49.234;9.326;2023-03-19T03:43:09;99464.34;;;11.92;81.91
6216;BME280;3141;49.234;9.326;2023-03-19T03:43:52;99462.72;;;11.91;81.17
6216;BME280;3141;49.234;9.326;2023-03-19T03:44:34;99468.16;;;11.89;81.40
6216;BME280;3141;49.234;9.326;2023-03-19T03:45:17;99467.50;;;11.87;82.05
6216;BME280;3141;49.234;9.326;2023-03-19T03:46:00;99473.78;;;11.86;81.92
6216;BME280;3141;49.234;9.326;2023-03-19T03:46:42;99473.31;;;11.83;81.57
6216;BME280;3141;49.234;9.326;2023-03-19T03:47:24;99463.06;;;11.80;81.68
6216;BME280;3141;49.234;9.326;2023-03-19T03:48:07;99464.38;;;11.76;82.04
6216;BME280;3141;49.234;9.326;2023-03-19T03:48:49;99462.38;;;11.61;82.97
6216;BME280;3141;49.234;9.326;2023-03-19T03:49:32;99463.72;;;11.57;83.73
6216;BME280;3141;49.234;9.326;2023-03-19T03:50:15;99456.44;;;11.43;84.26
6216;BME280;3141;49.234;9.326;2023-03-19T03:50:58;99454.28;;;11.47;84.50
6216;BME280;3141;49.234;9.326;2023-03-19T03:51:40;99456.78;;;11.48;84.93
6216;BME280;3141;49.234;9.326;2023-03-19T03:52:23;99458.91;;;11.53;84.39
6216;BME280;3141;49.234;9.326;2023-03-19T03:53:05;99461.25;;;11.56;83.94
6216;BME280;3141;49.234;9.326;2023-03-19T03:53:48;99457.75;;;11.55;83.80
6216;BME280;3141;49.234;9.326;2023-03-19T03:54:30;99456.78;;;11.48;84.10
6216;BME280;3141;49.234;9.326;2023-03-19T03:55:12;99456.63;;;11.42;84.51
6216;BME280;3141;49.234;9.326;2023-03-19T03:55:55;99459.09;;;11.43;84.59
6216;BME280;3141;49.234;9.326;2023-03-19T03:56:37;99460.56;;;11.46;84.71
6216;BME280;3141;49.234;9.326;2023-03-19T03:57:19;99451.16;;;11.43;84.59
6216;BME280;3141;49.234;9.326;2023-03-19T03:58:02;99451.31;;;11.42;85.23
6216;BME280;3141;49.234;9.326;2023-03-19T03:58:44;99453.63;;;11.45;85.23
6216;BME280;3141;49.234;9.326;2023-03-19T03:59:27;99452.31;;;11.41;85.25